Weather at Sabine River Authority Airport [CLOSED]

Public forecast

Using degrees Fahrenheit for public forecast. Weather courtesy of forecast.io.

Closest aviation weather report (METAR) to Sabine River Authority Airport

Closest report is Majors Airport, 16.0 nm (29.6 km) NW.

2024/05/28 18:15 (retrieved 1 hour ago)

KGVT 281815Z AUTO 07009KT 10SM CLR 22/18 A3005 RMK AO2 TSNO T02240184

Closest aviation forecast (TAF) to Sabine River Authority Airport

Closest forecast is Tyler Pounds Regional Airport, 38.4 nm (71.2 km) SE.

2024/05/28 18:22 (retrieved 1 hour ago)

TAF KTYR 281720Z 2818/2918 07010KT 6SM -SHRA VCTS OVC050CB FM282000 07010KT P6SM BKN100 FM290000 06005KT P6SM SCT100 FM290300 VRB03KT P6SM FEW070 FM290900 VRB03KT P6SM BKN080 FM291500 08004KT P6SM OVC100